createdAt,value
2023-03-13T00:04:23.887Z,19.75
2023-03-13T00:09:45.628Z,19.71
2023-03-13T00:15:08.026Z,19.67
2023-03-13T00:20:30.107Z,19.63
2023-03-13T00:26:03.813Z,19.63
2023-03-13T00:31:28.415Z,19.56
2023-03-13T00:36:50.278Z,19.54
2023-03-13T00:42:12.125Z,19.50
2023-03-13T00:47:33.812Z,19.47
2023-03-13T00:52:55.657Z,19.44
2023-03-13T00:58:17.394Z,19.42
2023-03-13T01:03:40.482Z,19.40
2023-03-13T01:09:03.218Z,19.37
2023-03-13T01:14:24.962Z,19.34
2023-03-13T01:19:46.627Z,19.34
2023-03-13T01:25:08.806Z,19.31
2023-03-13T01:30:32.068Z,19.29
2023-03-13T01:36:01.821Z,19.28
2023-03-13T01:41:24.896Z,19.25
2023-03-13T01:46:46.652Z,19.24
2023-03-13T01:52:16.888Z,19.22
2023-03-13T01:57:45.690Z,19.21
2023-03-13T02:03:12.730Z,19.16
2023-03-13T02:09:08.050Z,19.15
2023-03-13T02:14:33.720Z,19.13
2023-03-13T02:19:55.564Z,19.13
2023-03-13T02:25:26.018Z,19.11
2023-03-13T02:30:50.411Z,19.07
2023-03-13T02:36:13.786Z,19.06
2023-03-13T02:41:36.044Z,19.06
2023-03-13T02:46:57.848Z,19.04
2023-03-13T02:52:51.231Z,19.04
2023-03-13T02:58:12.941Z,19.03
2023-03-13T03:03:37.119Z,19.01
2023-03-13T03:08:58.907Z,19.00
2023-03-13T03:14:20.759Z,18.98
2023-03-13T03:19:42.425Z,18.97
2023-03-13T03:25:06.429Z,18.96
2023-03-13T03:30:28.972Z,18.93
2023-03-13T03:35:51.422Z,18.94
2023-03-13T03:41:16.704Z,18.92
2023-03-13T03:46:38.412Z,18.91
2023-03-13T03:52:00.136Z,18.89
2023-03-13T03:57:21.972Z,18.88
2023-03-13T04:02:43.746Z,18.87
2023-03-13T04:08:06.029Z,18.86
2023-03-13T04:13:28.588Z,18.85
2023-03-13T04:18:50.298Z,18.85
2023-03-13T04:24:12.089Z,18.84
2023-03-13T04:29:35.331Z,18.83
2023-03-13T04:34:57.119Z,18.82
2023-03-13T04:40:18.946Z,18.79
2023-03-13T04:45:40.718Z,18.79
2023-03-13T04:51:02.573Z,18.77
2023-03-13T04:56:41.629Z,18.77
2023-03-13T05:02:04.223Z,18.76
2023-03-13T05:07:25.946Z,18.75
2023-03-13T05:12:47.661Z,18.75
2023-03-13T05:18:09.358Z,18.73
2023-03-13T05:23:31.047Z,18.73
2023-03-13T05:28:52.835Z,18.72
2023-03-13T05:34:14.522Z,18.71
2023-03-13T05:39:36.182Z,18.71
2023-03-13T05:44:57.967Z,18.71
2023-03-13T05:50:19.803Z,18.69
2023-03-13T05:55:42.672Z,18.69
2023-03-13T06:01:09.433Z,18.69
2023-03-13T06:06:31.244Z,18.68
2023-03-13T06:11:53.369Z,18.86
2023-03-13T06:17:15.106Z,19.28
2023-03-13T06:22:36.847Z,19.66
2023-03-13T06:27:59.069Z,19.90
2023-03-13T06:33:20.956Z,20.02
2023-03-13T06:38:42.698Z,20.04
2023-03-13T06:44:05.382Z,20.01
2023-03-13T06:49:27.127Z,19.95
2023-03-13T06:54:48.830Z,19.89
2023-03-13T07:00:13.837Z,19.82
2023-03-13T07:05:35.523Z,19.74
2023-03-13T07:11:03.053Z,19.68
2023-03-13T07:16:24.767Z,19.57
2023-03-13T07:21:47.357Z,19.50
2023-03-13T07:27:09.197Z,19.44
2023-03-13T07:32:34.292Z,19.39
2023-03-13T07:37:56.560Z,19.33
2023-03-13T07:43:19.129Z,19.29
2023-03-13T07:48:43.182Z,19.23
2023-03-13T07:54:05.081Z,19.20
2023-03-13T07:59:26.939Z,19.17
2023-03-13T08:04:52.500Z,19.14
2023-03-13T08:10:14.158Z,19.08
2023-03-13T08:15:35.900Z,19.05
2023-03-13T08:21:02.096Z,19.08
2023-03-13T08:26:27.063Z,19.18
2023-03-13T08:31:51.632Z,19.32
2023-03-13T08:37:16.773Z,19.44
2023-03-13T08:42:39.151Z,19.54
2023-03-13T08:48:01.150Z,19.68
2023-03-13T08:53:22.947Z,19.83
2023-03-13T08:58:45.391Z,19.91
2023-03-13T09:04:08.116Z,19.98
2023-03-13T09:09:29.994Z,20.03
2023-03-13T09:14:51.700Z,20.18
2023-03-13T09:20:16.966Z,20.39
2023-03-13T09:25:39.213Z,20.55
2023-03-13T09:31:11.374Z,20.72
2023-03-13T09:36:33.233Z,20.81
2023-03-13T09:42:17.467Z,20.90
2023-03-13T09:47:39.097Z,20.92
2023-03-13T09:53:13.720Z,20.90
2023-03-13T09:58:35.601Z,20.84
2023-03-13T10:04:05.795Z,20.82
2023-03-13T10:09:33.964Z,20.78
2023-03-13T10:15:17.496Z,20.71
2023-03-13T10:20:41.008Z,20.62
2023-03-13T10:26:02.900Z,20.53
2023-03-13T10:31:33.079Z,20.46
2023-03-13T10:36:58.728Z,20.39
2023-03-13T10:42:23.090Z,20.26
2023-03-13T10:47:45.023Z,20.22
2023-03-13T10:53:30.958Z,20.18
2023-03-13T10:58:53.677Z,20.10
2023-03-13T11:04:32.115Z,20.07
2023-03-13T11:10:02.010Z,20.01
2023-03-13T11:15:46.304Z,19.95
2023-03-13T11:21:20.103Z,19.89
2023-03-13T11:27:26.959Z,19.84
2023-03-13T11:32:55.395Z,19.82
2023-03-13T11:38:32.650Z,19.84
2023-03-13T11:44:09.149Z,19.86
2023-03-13T11:50:05.033Z,19.91
2023-03-13T11:56:08.628Z,19.95
2023-03-13T12:01:40.413Z,19.96
2023-03-13T12:07:05.143Z,20.00
2023-03-13T12:12:45.226Z,20.03
2023-03-13T12:18:20.031Z,20.08
2023-03-13T12:23:44.611Z,20.10
2023-03-13T12:29:20.305Z,20.11
2023-03-13T12:35:05.327Z,20.14
2023-03-13T12:40:57.659Z,20.12
2023-03-13T12:46:19.381Z,20.11
2023-03-13T12:52:23.528Z,20.11
2023-03-13T12:58:19.275Z,20.11
2023-03-13T13:04:07.765Z,20.10
2023-03-13T13:09:36.471Z,20.08
2023-03-13T13:15:04.281Z,20.07
2023-03-13T13:20:36.478Z,20.03
2023-03-13T13:26:27.207Z,20.02
2023-03-13T13:31:50.915Z,19.97
2023-03-13T13:37:12.636Z,19.94
2023-03-13T13:42:34.405Z,19.90
2023-03-13T13:48:43.477Z,19.86
2023-03-13T13:54:34.272Z,19.85
2023-03-13T14:00:19.815Z,19.84
2023-03-13T14:05:41.941Z,19.83
2023-03-13T14:11:25.236Z,19.83
2023-03-13T14:16:51.900Z,19.84
2023-03-13T14:22:14.594Z,19.84
2023-03-13T14:27:43.879Z,19.86
2023-03-13T14:33:06.266Z,19.85
2023-03-13T14:38:33.664Z,19.85
2023-03-13T14:44:01.540Z,19.81
2023-03-13T14:49:27.122Z,19.81
2023-03-13T14:54:53.419Z,19.77
2023-03-13T15:00:32.812Z,19.81
2023-03-13T15:06:27.138Z,19.76
2023-03-13T15:12:00.238Z,19.76
2023-03-13T15:17:25.043Z,19.79
2023-03-13T15:22:46.781Z,19.86
2023-03-13T15:28:19.904Z,19.99
2023-03-13T15:33:43.168Z,20.09
2023-03-13T15:39:06.705Z,20.21
2023-03-13T15:44:28.458Z,20.29
2023-03-13T15:49:50.245Z,20.38
2023-03-13T15:55:12.814Z,20.44
2023-03-13T16:00:34.529Z,20.47
2023-03-13T16:05:57.413Z,20.50
2023-03-13T16:11:19.469Z,20.49
2023-03-13T16:16:41.638Z,20.48
2023-03-13T16:22:03.401Z,20.47
2023-03-13T16:27:26.708Z,20.43
2023-03-13T16:32:48.607Z,20.37
2023-03-13T16:38:11.763Z,20.28
2023-03-13T16:43:33.944Z,20.22
2023-03-13T16:48:58.563Z,20.19
2023-03-13T16:54:20.485Z,20.14
2023-03-13T16:59:42.222Z,20.11
2023-03-13T17:05:04.065Z,20.09
2023-03-13T17:10:25.775Z,20.07
2023-03-13T17:15:47.471Z,20.05
2023-03-13T17:21:17.928Z,20.05
2023-03-13T17:26:40.220Z,20.01
2023-03-13T17:32:04.037Z,19.97
2023-03-13T17:37:26.832Z,19.95
2023-03-13T17:42:48.854Z,19.92
2023-03-13T17:48:13.117Z,19.89
2023-03-13T17:53:34.803Z,19.85
2023-03-13T17:58:59.558Z,19.80
2023-03-13T18:04:21.412Z,19.75
2023-03-13T18:09:47.640Z,19.71
2023-03-13T18:15:10.038Z,19.78
2023-03-13T18:20:32.562Z,19.87
2023-03-13T18:25:54.244Z,20.05
2023-03-13T18:31:16.122Z,20.21
2023-03-13T18:36:38.993Z,20.32
2023-03-13T18:42:02.211Z,20.39
2023-03-13T18:47:27.430Z,20.59
2023-03-13T18:52:49.373Z,20.90
2023-03-13T18:58:11.906Z,21.24
2023-03-13T19:03:33.728Z,21.53
2023-03-13T19:09:01.787Z,21.75
2023-03-13T19:14:23.827Z,21.89
2023-03-13T19:19:45.691Z,21.98
2023-03-13T19:25:07.856Z,22.01
2023-03-13T19:30:29.581Z,22.01
2023-03-13T19:35:51.407Z,21.95
2023-03-13T19:41:14.366Z,21.89
2023-03-13T19:46:39.424Z,21.79
2023-03-13T19:52:01.419Z,21.71
2023-03-13T19:57:23.329Z,21.60
2023-03-13T20:02:45.403Z,21.49
2023-03-13T20:08:07.893Z,21.40
2023-03-13T20:13:29.946Z,21.28
2023-03-13T20:18:52.686Z,21.21
2023-03-13T20:24:14.384Z,21.14
2023-03-13T20:29:36.412Z,21.09
2023-03-13T20:34:58.118Z,21.10
2023-03-13T20:40:19.934Z,21.13
2023-03-13T20:45:41.647Z,21.20
2023-03-13T20:51:03.722Z,21.32
2023-03-13T20:56:26.709Z,21.44
2023-03-13T21:01:48.580Z,21.51
2023-03-13T21:07:11.276Z,21.59
2023-03-13T21:12:32.987Z,21.64
2023-03-13T21:17:56.548Z,21.64
2023-03-13T21:23:18.386Z,21.62
2023-03-13T21:28:40.693Z,21.54
2023-03-13T21:34:02.443Z,21.44
2023-03-13T21:39:24.186Z,21.33
2023-03-13T21:44:48.958Z,21.22
2023-03-13T21:50:11.579Z,21.12
2023-03-13T21:55:35.495Z,21.03
2023-03-13T22:00:57.997Z,20.95
2023-03-13T22:06:22.716Z,20.86
2023-03-13T22:11:44.492Z,20.77
2023-03-13T22:17:06.271Z,20.70
2023-03-13T22:22:28.050Z,20.62
2023-03-13T22:27:49.718Z,20.56
2023-03-13T22:33:11.452Z,20.51
2023-03-13T22:38:39.331Z,20.44
2023-03-13T22:44:01.055Z,20.39
2023-03-13T22:49:22.799Z,20.34
2023-03-13T22:54:46.926Z,20.29
2023-03-13T23:00:09.741Z,20.24
2023-03-13T23:05:31.502Z,20.20
2023-03-13T23:10:53.212Z,20.17
2023-03-13T23:16:15.023Z,20.13
2023-03-13T23:21:38.397Z,20.09
2023-03-13T23:27:00.170Z,20.06
2023-03-13T23:32:22.834Z,20.04
2023-03-13T23:37:48.359Z,20.02
2023-03-13T23:43:10.017Z,19.94
2023-03-13T23:48:32.404Z,19.93
2023-03-13T23:53:54.100Z,19.90
2023-03-13T23:59:15.895Z,19.87
